sensor_id;sensor_type;location;lat;lon;timestamp;temperature;humidity
3055;DHT22;1537;52.018;8.542;2023-05-13T00:02:12;13.40;99.90
3055;DHT22;1537;52.018;8.542;2023-05-13T00:05:36;13.40;99.90
3055;DHT22;1537;52.018;8.542;2023-05-13T00:09:02;13.40;99.90
3055;DHT22;1537;52.018;8.542;2023-05-13T00:12:26;13.40;99.90
3055;DHT22;1537;52.018;8.542;2023-05-13T00:15:56;13.30;99.90
3055;DHT22;1537;52.018;8.542;2023-05-13T00:19:20;13.40;99.90
3055;DHT22;1537;52.018;8.542;2023-05-13T00:22:44;13.30;99.90
3055;DHT22;1537;52.018;8.542;2023-05-13T00:26:08;13.20;99.90
3055;DHT22;1537;52.018;8.542;2023-05-13T00:29:32;13.10;99.90
3055;DHT22;1537;52.018;8.542;2023-05-13T00:32:58;13.10;99.90
3055;DHT22;1537;52.018;8.542;2023-05-13T00:36:24;13.10;99.90
3055;DHT22;1537;52.018;8.542;2023-05-13T00:39:50;13.00;99.90
3055;DHT22;1537;52.018;8.542;2023-05-13T00:43:16;12.90;99.90
3055;DHT22;1537;52.018;8.542;2023-05-13T00:46:41;12.80;99.90
3055;DHT22;1537;52.018;8.542;2023-05-13T00:50:09;12.80;99.90
3055;DHT22;1537;52.018;8.542;2023-05-13T00:53:35;12.70;99.90
3055;DHT22;1537;52.018;8.542;2023-05-13T00:57:07;12.70;99.90
3055;DHT22;1537;52.018;8.542;2023-05-13T01:00:32;12.70;99.90
3055;DHT22;1537;52.018;8.542;2023-05-13T01:04:10;12.60;99.90
3055;DHT22;1537;52.018;8.542;2023-05-13T01:07:45;12.70;99.90
3055;DHT22;1537;52.018;8.542;2023-05-13T01:11:21;12.70;99.90
3055;DHT22;1537;52.018;8.542;2023-05-13T01:14:51;12.70;99.90
3055;DHT22;1537;52.018;8.542;2023-05-13T01:18:24;12.70;99.90
3055;DHT22;1537;52.018;8.542;2023-05-13T01:21:52;12.70;99.90
3055;DHT22;1537;52.018;8.542;2023-05-13T01:25:16;12.60;99.90
3055;DHT22;1537;52.018;8.542;2023-05-13T01:28:42;12.60;99.90
3055;DHT22;1537;52.018;8.542;2023-05-13T01:32:07;12.60;99.90
3055;DHT22;1537;52.018;8.542;2023-05-13T01:35:33;12.70;99.90
3055;DHT22;1537;52.018;8.542;2023-05-13T01:39:02;12.70;99.90
3055;DHT22;1537;52.018;8.542;2023-05-13T01:42:28;12.70;99.90
3055;DHT22;1537;52.018;8.542;2023-05-13T01:45:53;12.70;99.90
3055;DHT22;1537;52.018;8.542;2023-05-13T01:49:17;12.70;99.90
3055;DHT22;1537;52.018;8.542;2023-05-13T01:52:41;12.70;99.90
3055;DHT22;1537;52.018;8.542;2023-05-13T01:56:09;12.70;99.90
3055;DHT22;1537;52.018;8.542;2023-05-13T01:59:32;12.70;99.90
3055;DHT22;1537;52.018;8.542;2023-05-13T02:02:56;12.70;99.90
3055;DHT22;1537;52.018;8.542;2023-05-13T02:06:20;12.70;99.90
3055;DHT22;1537;52.018;8.542;2023-05-13T02:09:44;12.60;99.90
3055;DHT22;1537;52.018;8.542;2023-05-13T02:13:10;12.60;99.90
3055;DHT22;1537;52.018;8.542;2023-05-13T02:16:34;12.70;99.90
3055;DHT22;1537;52.018;8.542;2023-05-13T02:20:01;12.70;99.90
3055;DHT22;1537;52.018;8.542;2023-05-13T02:23:25;12.70;99.90
3055;DHT22;1537;52.018;8.542;2023-05-13T02:26:50;12.60;99.90
3055;DHT22;1537;52.018;8.542;2023-05-13T02:30:17;12.60;99.90
3055;DHT22;1537;52.018;8.542;2023-05-13T02:33:41;12.60;99.90
3055;DHT22;1537;52.018;8.542;2023-05-13T02:37:05;12.60;99.90
3055;DHT22;1537;52.018;8.542;2023-05-13T02:40:36;12.60;99.90
3055;DHT22;1537;52.018;8.542;2023-05-13T02:44:00;12.60;99.90
3055;DHT22;1537;52.018;8.542;2023-05-13T02:47:27;12.60;99.90
3055;DHT22;1537;52.018;8.542;2023-05-13T02:50:55;12.60;99.90
3055;DHT22;1537;52.018;8.542;2023-05-13T02:54:21;12.60;99.90
3055;DHT22;1537;52.018;8.542;2023-05-13T02:57:46;12.60;99.90
3055;DHT22;1537;52.018;8.542;2023-05-13T03:01:10;12.60;99.90
3055;DHT22;1537;52.018;8.542;2023-05-13T03:04:35;12.50;99.90
3055;DHT22;1537;52.018;8.542;2023-05-13T03:07:59;12.50;99.90
3055;DHT22;1537;52.018;8.542;2023-05-13T03:11:23;12.50;99.90
3055;DHT22;1537;52.018;8.542;2023-05-13T03:14:48;12.50;99.90
3055;DHT22;1537;52.018;8.542;2023-05-13T03:18:13;12.60;99.90
3055;DHT22;1537;52.018;8.542;2023-05-13T03:21:40;12.50;99.90
3055;DHT22;1537;52.018;8.542;2023-05-13T03:25:09;12.50;99.90
3055;DHT22;1537;52.018;8.542;2023-05-13T03:28:41;12.50;99.90
3055;DHT22;1537;52.018;8.542;2023-05-13T03:32:05;12.40;99.90
3055;DHT22;1537;52.018;8.542;2023-05-13T03:35:30;12.40;99.90
3055;DHT22;1537;52.018;8.542;2023-05-13T03:38:56;12.40;99.90
3055;DHT22;1537;52.018;8.542;2023-05-13T03:42:21;12.40;99.90
3055;DHT22;1537;52.018;8.542;2023-05-13T03:45:46;12.40;99.90
3055;DHT22;1537;52.018;8.542;2023-05-13T03:49:14;12.50;99.90
3055;DHT22;1537;52.018;8.542;2023-05-13T03:52:38;12.50;99.90
3055;DHT22;1537;52.018;8.542;2023-05-13T03:56:03;12.50;99.90
3055;DHT22;1537;52.018;8.542;2023-05-13T03:59:27;12.40;99.90
3055;DHT22;1537;52.018;8.542;2023-05-13T04:02:52;12.40;99.90
3055;DHT22;1537;52.018;8.542;2023-05-13T04:06:16;12.40;99.90
3055;DHT22;1537;52.018;8.542;2023-05-13T04:09:41;12.40;99.90
3055;DHT22;1537;52.018;8.542;2023-05-13T04:13:07;12.50;99.90
3055;DHT22;1537;52.018;8.542;2023-05-13T04:16:31;12.70;99.90
3055;DHT22;1537;52.018;8.542;2023-05-13T04:19:56;12.70;99.90
3055;DHT22;1537;52.018;8.542;2023-05-13T04:23:20;12.90;99.90
3055;DHT22;1537;52.018;8.542;2023-05-13T04:26:44;13.00;99.90
3055;DHT22;1537;52.018;8.542;2023-05-13T04:30:12;13.00;99.90
3055;DHT22;1537;52.018;8.542;2023-05-13T04:33:41;13.00;99.90
3055;DHT22;1537;52.018;8.542;2023-05-13T04:37:05;13.00;99.90
3055;DHT22;1537;52.018;8.542;2023-05-13T04:40:29;13.00;99.90
3055;DHT22;1537;52.018;8.542;2023-05-13T04:43:58;12.80;99.90
3055;DHT22;1537;52.018;8.542;2023-05-13T04:47:24;12.80;99.90
3055;DHT22;1537;52.018;8.542;2023-05-13T04:50:49;12.80;99.90
3055;DHT22;1537;52.018;8.542;2023-05-13T04:54:15;12.80;99.90
3055;DHT22;1537;52.018;8.542;2023-05-13T04:57:40;12.80;99.90
3055;DHT22;1537;52.018;8.542;2023-05-13T05:01:05;12.90;99.90
3055;DHT22;1537;52.018;8.542;2023-05-13T05:04:31;13.00;99.90
3055;DHT22;1537;52.018;8.542;2023-05-13T05:07:58;13.30;99.90
3055;DHT22;1537;52.018;8.542;2023-05-13T05:11:22;13.70;99.90
3055;DHT22;1537;52.018;8.542;2023-05-13T05:14:47;14.00;99.90
3055;DHT22;1537;52.018;8.542;2023-05-13T05:18:11;13.90;99.90
3055;DHT22;1537;52.018;8.542;2023-05-13T05:21:39;13.90;99.90
3055;DHT22;1537;52.018;8.542;2023-05-13T05:25:04;14.70;99.90
3055;DHT22;1537;52.018;8.542;2023-05-13T05:28:28;15.80;99.90
3055;DHT22;1537;52.018;8.542;2023-05-13T05:31:52;16.80;99.90
3055;DHT22;1537;52.018;8.542;2023-05-13T05:35:18;17.70;99.90
3055;DHT22;1537;52.018;8.542;2023-05-13T05:38:43;18.10;99.90
3055;DHT22;1537;52.018;8.542;2023-05-13T05:42:08;18.50;99.20
3055;DHT22;1537;52.018;8.542;2023-05-13T05:45:33;19.00;97.90
3055;DHT22;1537;52.018;8.542;2023-05-13T05:49:00;19.10;96.80
3055;DHT22;1537;52.018;8.542;2023-05-13T05:52:27;19.00;96.50
3055;DHT22;1537;52.018;8.542;2023-05-13T05:55:53;19.20;95.70
3055;DHT22;1537;52.018;8.542;2023-05-13T05:59:17;19.70;95.40
3055;DHT22;1537;52.018;8.542;2023-05-13T06:02:42;20.20;93.60
3055;DHT22;1537;52.018;8.542;2023-05-13T06:06:08;20.00;93.50
3055;DHT22;1537;52.018;8.542;2023-05-13T06:09:32;19.90;93.40
3055;DHT22;1537;52.018;8.542;2023-05-13T06:12:58;19.60;93.70
3055;DHT22;1537;52.018;8.542;2023-05-13T06:16:24;20.00;93.50
3055;DHT22;1537;52.018;8.542;2023-05-13T06:19:50;20.30;92.30
3055;DHT22;1537;52.018;8.542;2023-05-13T06:23:14;20.70;92.10
3055;DHT22;1537;52.018;8.542;2023-05-13T06:26:39;21.10;90.90
3055;DHT22;1537;52.018;8.542;2023-05-13T06:30:05;21.50;88.10
3055;DHT22;1537;52.018;8.542;2023-05-13T06:33:30;21.70;85.50
3055;DHT22;1537;52.018;8.542;2023-05-13T06:36:54;21.90;84.60
3055;DHT22;1537;52.018;8.542;2023-05-13T06:40:19;22.10;83.40
3055;DHT22;1537;52.018;8.542;2023-05-13T06:43:43;22.00;82.40
3055;DHT22;1537;52.018;8.542;2023-05-13T06:47:19;22.70;81.40
3055;DHT22;1537;52.018;8.542;2023-05-13T06:50:45;23.20;77.70
3055;DHT22;1537;52.018;8.542;2023-05-13T06:54:10;23.10;76.20
3055;DHT22;1537;52.018;8.542;2023-05-13T06:57:35;23.10;77.20
3055;DHT22;1537;52.018;8.542;2023-05-13T07:01:05;23.00;75.40
3055;DHT22;1537;52.018;8.542;2023-05-13T07:04:31;22.50;74.90
3055;DHT22;1537;52.018;8.542;2023-05-13T07:07:55;22.80;74.90
3055;DHT22;1537;52.018;8.542;2023-05-13T07:11:19;23.40;73.60
3055;DHT22;1537;52.018;8.542;2023-05-13T07:14:45;23.60;72.50
3055;DHT22;1537;52.018;8.542;2023-05-13T07:18:09;24.60;70.80
3055;DHT22;1537;52.018;8.542;2023-05-13T07:21:34;24.40;70.40
3055;DHT22;1537;52.018;8.542;2023-05-13T07:24:58;25.20;68.70
3055;DHT22;1537;52.018;8.542;2023-05-13T07:28:22;25.70;66.20
3055;DHT22;1537;52.018;8.542;2023-05-13T07:31:46;24.80;64.70
3055;DHT22;1537;52.018;8.542;2023-05-13T07:35:10;25.00;64.30
3055;DHT22;1537;52.018;8.542;2023-05-13T07:38:35;25.30;64.60
3055;DHT22;1537;52.018;8.542;2023-05-13T07:41:59;25.20;64.00
3055;DHT22;1537;52.018;8.542;2023-05-13T07:45:23;25.10;63.40
3055;DHT22;1537;52.018;8.542;2023-05-13T07:48:48;26.30;62.10
3055;DHT22;1537;52.018;8.542;2023-05-13T07:52:12;27.30;56.90
3055;DHT22;1537;52.018;8.542;2023-05-13T07:55:37;26.80;56.80
3055;DHT22;1537;52.018;8.542;2023-05-13T07:59:01;26.00;58.30
3055;DHT22;1537;52.018;8.542;2023-05-13T08:02:25;25.40;60.00
3055;DHT22;1537;52.018;8.542;2023-05-13T08:05:49;24.80;60.30
3055;DHT22;1537;52.018;8.542;2023-05-13T08:09:13;25.30;60.40
3055;DHT22;1537;52.018;8.542;2023-05-13T08:12:38;26.00;57.90
3055;DHT22;1537;52.018;8.542;2023-05-13T08:16:02;25.80;58.70
3055;DHT22;1537;52.018;8.542;2023-05-13T08:19:28;25.70;58.90
3055;DHT22;1537;52.018;8.542;2023-05-13T08:22:52;25.30;59.50
3055;DHT22;1537;52.018;8.542;2023-05-13T08:26:15;26.00;59.40
3055;DHT22;1537;52.018;8.542;2023-05-13T08:29:40;26.80;58.80
3055;DHT22;1537;52.018;8.542;2023-05-13T08:33:04;27.40;55.90
3055;DHT22;1537;52.018;8.542;2023-05-13T08:36:27;26.90;55.80
3055;DHT22;1537;52.018;8.542;2023-05-13T08:39:51;26.80;56.30
3055;DHT22;1537;52.018;8.542;2023-05-13T08:43:18;26.50;55.70
3055;DHT22;1537;52.018;8.542;2023-05-13T08:46:50;26.30;54.90
3055;DHT22;1537;52.018;8.542;2023-05-13T08:50:16;27.00;54.50
3055;DHT22;1537;52.018;8.542;2023-05-13T08:53:40;27.90;51.90
3055;DHT22;1537;52.018;8.542;2023-05-13T08:57:05;28.30;51.80
3055;DHT22;1537;52.018;8.542;2023-05-13T09:00:28;27.40;51.20
3055;DHT22;1537;52.018;8.542;2023-05-13T09:03:58;27.20;51.70
3055;DHT22;1537;52.018;8.542;2023-05-13T09:07:22;27.30;50.90
3055;DHT22;1537;52.018;8.542;2023-05-13T09:10:47;26.80;51.60
3055;DHT22;1537;52.018;8.542;2023-05-13T09:14:10;27.00;52.20
3055;DHT22;1537;52.018;8.542;2023-05-13T09:17:36;26.50;51.70
3055;DHT22;1537;52.018;8.542;2023-05-13T09:21:23;26.50;52.00
3055;DHT22;1537;52.018;8.542;2023-05-13T09:24:52;26.90;51.10
3055;DHT22;1537;52.018;8.542;2023-05-13T09:28:16;27.60;49.60
3055;DHT22;1537;52.018;8.542;2023-05-13T09:31:40;27.70;49.60
3055;DHT22;1537;52.018;8.542;2023-05-13T09:35:11;27.70;49.70
3055;DHT22;1537;52.018;8.542;2023-05-13T09:38:39;27.20;49.80
3055;DHT22;1537;52.018;8.542;2023-05-13T09:42:03;27.00;50.00
3055;DHT22;1537;52.018;8.542;2023-05-13T09:45:27;26.20;50.60
3055;DHT22;1537;52.018;8.542;2023-05-13T09:48:51;26.90;51.10
3055;DHT22;1537;52.018;8.542;2023-05-13T09:52:18;27.10;49.70
3055;DHT22;1537;52.018;8.542;2023-05-13T09:55:46;27.30;49.70
3055;DHT22;1537;52.018;8.542;2023-05-13T09:59:10;27.40;49.40
3055;DHT22;1537;52.018;8.542;2023-05-13T10:02:34;26.60;49.30
3055;DHT22;1537;52.018;8.542;2023-05-13T10:05:58;26.80;50.40
3055;DHT22;1537;52.018;8.542;2023-05-13T10:09:25;27.40;48.60
3055;DHT22;1537;52.018;8.542;2023-05-13T10:12:52;28.60;47.80
3055;DHT22;1537;52.018;8.542;2023-05-13T10:16:16;28.60;46.70
3055;DHT22;1537;52.018;8.542;2023-05-13T10:19:41;27.70;47.40
3055;DHT22;1537;52.018;8.542;2023-05-13T10:23:05;27.90;47.20
3055;DHT22;1537;52.018;8.542;2023-05-13T10:26:30;27.30;48.00
3055;DHT22;1537;52.018;8.542;2023-05-13T10:29:57;27.40;47.90
3055;DHT22;1537;52.018;8.542;2023-05-13T10:33:26;27.60;47.90
3055;DHT22;1537;52.018;8.542;2023-05-13T10:37:22;27.30;47.30
3055;DHT22;1537;52.018;8.542;2023-05-13T10:41:09;28.20;47.50
3055;DHT22;1537;52.018;8.542;2023-05-13T10:44:34;28.10;47.40
3055;DHT22;1537;52.018;8.542;2023-05-13T10:48:05;28.10;45.70
3055;DHT22;1537;52.018;8.542;2023-05-13T10:51:30;26.80;48.10
3055;DHT22;1537;52.018;8.542;2023-05-13T10:54:59;26.80;47.70
3055;DHT22;1537;52.018;8.542;2023-05-13T10:58:29;25.70;49.50
3055;DHT22;1537;52.018;8.542;2023-05-13T11:01:53;25.50;51.00
3055;DHT22;1537;52.018;8.542;2023-05-13T11:05:20;25.20;50.00
3055;DHT22;1537;52.018;8.542;2023-05-13T11:08:45;25.00;49.30
3055;DHT22;1537;52.018;8.542;2023-05-13T11:12:14;24.70;51.20
3055;DHT22;1537;52.018;8.542;2023-05-13T11:15:44;24.40;51.60
3055;DHT22;1537;52.018;8.542;2023-05-13T11:19:17;24.10;53.30
3055;DHT22;1537;52.018;8.542;2023-05-13T11:22:43;23.90;53.70
3055;DHT22;1537;52.018;8.542;2023-05-13T11:26:11;23.50;53.70
3055;DHT22;1537;52.018;8.542;2023-05-13T11:29:37;23.20;54.60
3055;DHT22;1537;52.018;8.542;2023-05-13T11:33:01;22.90;55.00
3055;DHT22;1537;52.018;8.542;2023-05-13T11:36:29;22.90;55.40
3055;DHT22;1537;52.018;8.542;2023-05-13T11:39:56;23.00;54.80
3055;DHT22;1537;52.018;8.542;2023-05-13T11:43:21;23.00;55.10
3055;DHT22;1537;52.018;8.542;2023-05-13T11:46:50;23.10;54.80
3055;DHT22;1537;52.018;8.542;2023-05-13T11:50:17;23.30;55.50
3055;DHT22;1537;52.018;8.542;2023-05-13T11:53:42;23.70;55.20
3055;DHT22;1537;52.018;8.542;2023-05-13T11:57:17;23.90;53.80
3055;DHT22;1537;52.018;8.542;2023-05-13T12:00:41;23.80;54.90
3055;DHT22;1537;52.018;8.542;2023-05-13T12:04:08;23.80;56.70
3055;DHT22;1537;52.018;8.542;2023-05-13T12:07:32;23.20;55.10
3055;DHT22;1537;52.018;8.542;2023-05-13T12:10:58;22.70;53.10
3055;DHT22;1537;52.018;8.542;2023-05-13T12:14:23;22.40;52.90
3055;DHT22;1537;52.018;8.542;2023-05-13T12:17:49;22.20;53.90
3055;DHT22;1537;52.018;8.542;2023-05-13T12:21:14;22.80;54.50
3055;DHT22;1537;52.018;8.542;2023-05-13T12:24:38;22.50;53.10
3055;DHT22;1537;52.018;8.542;2023-05-13T12:28:06;22.40;54.40
3055;DHT22;1537;52.018;8.542;2023-05-13T12:31:31;22.10;52.40
3055;DHT22;1537;52.018;8.542;2023-05-13T12:34:54;22.10;51.60
3055;DHT22;1537;52.018;8.542;2023-05-13T12:38:20;22.30;50.40
3055;DHT22;1537;52.018;8.542;2023-05-13T12:41:50;22.60;50.10
3055;DHT22;1537;52.018;8.542;2023-05-13T12:45:15;22.70;51.40
3055;DHT22;1537;52.018;8.542;2023-05-13T12:48:40;22.90;50.20
3055;DHT22;1537;52.018;8.542;2023-05-13T12:52:04;22.90;50.80
3055;DHT22;1537;52.018;8.542;2023-05-13T12:55:27;22.60;51.30
3055;DHT22;1537;52.018;8.542;2023-05-13T12:58:52;22.60;52.00
3055;DHT22;1537;52.018;8.542;2023-05-13T13:02:16;22.50;50.70
3055;DHT22;1537;52.018;8.542;2023-05-13T13:05:42;22.30;50.10
3055;DHT22;1537;52.018;8.542;2023-05-13T13:09:06;22.10;50.10
3055;DHT22;1537;52.018;8.542;2023-05-13T13:12:29;22.10;47.10
3055;DHT22;1537;52.018;8.542;2023-05-13T13:15:53;22.30;47.90
3055;DHT22;1537;52.018;8.542;2023-05-13T13:19:16;22.60;48.70
3055;DHT22;1537;52.018;8.542;2023-05-13T13:22:41;22.80;49.20
3055;DHT22;1537;52.018;8.542;2023-05-13T13:26:05;22.80;50.50
3055;DHT22;1537;52.018;8.542;2023-05-13T13:29:29;22.40;49.40
3055;DHT22;1537;52.018;8.542;2023-05-13T13:32:52;22.20;50.20
3055;DHT22;1537;52.018;8.542;2023-05-13T13:36:16;22.40;50.50
3055;DHT22;1537;52.018;8.542;2023-05-13T13:39:44;22.80;50.30
3055;DHT22;1537;52.018;8.542;2023-05-13T13:43:12;22.60;48.50
3055;DHT22;1537;52.018;8.542;2023-05-13T13:46:43;22.30;49.10
3055;DHT22;1537;52.018;8.542;2023-05-13T13:50:10;22.50;49.70
3055;DHT22;1537;52.018;8.542;2023-05-13T13:53:34;22.60;50.60
3055;DHT22;1537;52.018;8.542;2023-05-13T13:57:04;22.50;48.20
3055;DHT22;1537;52.018;8.542;2023-05-13T14:00:28;22.40;47.50
3055;DHT22;1537;52.018;8.542;2023-05-13T14:04:10;22.50;47.10
3055;DHT22;1537;52.018;8.542;2023-05-13T14:07:36;22.60;48.70
3055;DHT22;1537;52.018;8.542;2023-05-13T14:11:00;22.50;50.40
3055;DHT22;1537;52.018;8.542;2023-05-13T14:14:25;22.60;49.20
3055;DHT22;1537;52.018;8.542;2023-05-13T14:17:49;22.60;47.40
3055;DHT22;1537;52.018;8.542;2023-05-13T14:21:12;22.60;47.80
3055;DHT22;1537;52.018;8.542;2023-05-13T14:24:36;23.00;47.10
3055;DHT22;1537;52.018;8.542;2023-05-13T14:28:00;23.10;47.90
3055;DHT22;1537;52.018;8.542;2023-05-13T14:31:25;22.90;49.00
3055;DHT22;1537;52.018;8.542;2023-05-13T14:34:49;22.50;50.10
3055;DHT22;1537;52.018;8.542;2023-05-13T14:38:13;22.50;50.20
3055;DHT22;1537;52.018;8.542;2023-05-13T14:41:36;22.40;50.10
3055;DHT22;1537;52.018;8.542;2023-05-13T14:45:02;21.90;49.00
3055;DHT22;1537;52.018;8.542;2023-05-13T14:48:27;21.60;50.50
3055;DHT22;1537;52.018;8.542;2023-05-13T14:51:50;21.80;50.60
3055;DHT22;1537;52.018;8.542;2023-05-13T14:55:14;21.80;49.40
3055;DHT22;1537;52.018;8.542;2023-05-13T14:58:38;21.90;50.40
3055;DHT22;1537;52.018;8.542;2023-05-13T15:02:02;22.10;48.50
3055;DHT22;1537;52.018;8.542;2023-05-13T15:05:27;21.90;48.70
3055;DHT22;1537;52.018;8.542;2023-05-13T15:08:51;22.00;46.40
3055;DHT22;1537;52.018;8.542;2023-05-13T15:12:15;22.20;47.30
3055;DHT22;1537;52.018;8.542;2023-05-13T15:15:38;22.20;47.30
3055;DHT22;1537;52.018;8.542;2023-05-13T15:19:02;22.20;46.60
3055;DHT22;1537;52.018;8.542;2023-05-13T15:22:27;22.30;46.80
3055;DHT22;1537;52.018;8.542;2023-05-13T15:25:53;22.40;47.60
3055;DHT22;1537;52.018;8.542;2023-05-13T15:29:17;22.40;47.30
3055;DHT22;1537;52.018;8.542;2023-05-13T15:32:40;22.60;48.20
3055;DHT22;1537;52.018;8.542;2023-05-13T15:36:05;22.30;45.80
3055;DHT22;1537;52.018;8.542;2023-05-13T15:39:32;22.20;46.10
3055;DHT22;1537;52.018;8.542;2023-05-13T15:42:56;22.30;46.70
3055;DHT22;1537;52.018;8.542;2023-05-13T15:46:19;22.30;46.60
3055;DHT22;1537;52.018;8.542;2023-05-13T15:49:45;22.40;47.00
3055;DHT22;1537;52.018;8.542;2023-05-13T15:53:10;22.50;46.70
3055;DHT22;1537;52.018;8.542;2023-05-13T15:56:36;22.50;46.60
3055;DHT22;1537;52.018;8.542;2023-05-13T16:00:00;22.40;47.60
3055;DHT22;1537;52.018;8.542;2023-05-13T16:03:26;22.00;48.00
3055;DHT22;1537;52.018;8.542;2023-05-13T16:06:50;21.70;48.30
3055;DHT22;1537;52.018;8.542;2023-05-13T16:10:13;21.60;48.50
3055;DHT22;1537;52.018;8.542;2023-05-13T16:13:39;21.50;48.30
3055;DHT22;1537;52.018;8.542;2023-05-13T16:17:02;21.60;48.00
3055;DHT22;1537;52.018;8.542;2023-05-13T16:20:26;21.40;45.90
3055;DHT22;1537;52.018;8.542;2023-05-13T16:23:49;21.30;46.10
3055;DHT22;1537;52.018;8.542;2023-05-13T16:27:13;21.30;46.50
3055;DHT22;1537;52.018;8.542;2023-05-13T16:30:38;21.10;46.80
3055;DHT22;1537;52.018;8.542;2023-05-13T16:34:02;21.20;47.00
3055;DHT22;1537;52.018;8.542;2023-05-13T16:37:26;21.10;46.10
3055;DHT22;1537;52.018;8.542;2023-05-13T16:40:49;21.20;46.20
3055;DHT22;1537;52.018;8.542;2023-05-13T16:44:13;21.40;46.30
3055;DHT22;1537;52.018;8.542;2023-05-13T16:47:38;21.50;46.70
3055;DHT22;1537;52.018;8.542;2023-05-13T16:51:02;21.50;46.20
3055;DHT22;1537;52.018;8.542;2023-05-13T16:54:26;21.40;47.40
3055;DHT22;1537;52.018;8.542;2023-05-13T16:57:49;21.40;47.30
3055;DHT22;1537;52.018;8.542;2023-05-13T17:01:14;21.30;46.50
3055;DHT22;1537;52.018;8.542;2023-05-13T17:04:41;21.30;46.00
3055;DHT22;1537;52.018;8.542;2023-05-13T17:08:05;21.30;46.80
3055;DHT22;1537;52.018;8.542;2023-05-13T17:11:28;21.30;47.20
3055;DHT22;1537;52.018;8.542;2023-05-13T17:14:52;21.30;47.10
3055;DHT22;1537;52.018;8.542;2023-05-13T17:18:15;21.10;46.90
3055;DHT22;1537;52.018;8.542;2023-05-13T17:21:40;21.00;46.10
3055;DHT22;1537;52.018;8.542;2023-05-13T17:25:05;21.00;46.80
3055;DHT22;1537;52.018;8.542;2023-05-13T17:28:29;21.00;47.20
3055;DHT22;1537;52.018;8.542;2023-05-13T17:31:54;21.10;46.80
3055;DHT22;1537;52.018;8.542;2023-05-13T17:35:18;21.00;46.70
3055;DHT22;1537;52.018;8.542;2023-05-13T17:38:43;20.90;47.10
3055;DHT22;1537;52.018;8.542;2023-05-13T17:42:07;20.80;47.00
3055;DHT22;1537;52.018;8.542;2023-05-13T17:45:30;20.70;46.50
3055;DHT22;1537;52.018;8.542;2023-05-13T17:48:55;20.70;46.90
3055;DHT22;1537;52.018;8.542;2023-05-13T17:52:18;20.60;47.50
3055;DHT22;1537;52.018;8.542;2023-05-13T17:55:43;20.60;45.70
3055;DHT22;1537;52.018;8.542;2023-05-13T17:59:09;20.50;45.30
3055;DHT22;1537;52.018;8.542;2023-05-13T18:02:33;20.50;45.90
3055;DHT22;1537;52.018;8.542;2023-05-13T18:05:57;20.50;46.30
3055;DHT22;1537;52.018;8.542;2023-05-13T18:09:21;20.50;45.90
3055;DHT22;1537;52.018;8.542;2023-05-13T18:12:46;20.40;45.80
3055;DHT22;1537;52.018;8.542;2023-05-13T18:16:10;20.30;45.50
3055;DHT22;1537;52.018;8.542;2023-05-13T18:19:34;20.10;45.90
3055;DHT22;1537;52.018;8.542;2023-05-13T18:22:58;20.10;45.60
3055;DHT22;1537;52.018;8.542;2023-05-13T18:26:22;20.10;46.00
3055;DHT22;1537;52.018;8.542;2023-05-13T18:29:47;20.00;45.80
3055;DHT22;1537;52.018;8.542;2023-05-13T18:33:10;19.90;45.70
3055;DHT22;1537;52.018;8.542;2023-05-13T18:36:34;19.90;46.50
3055;DHT22;1537;52.018;8.542;2023-05-13T18:39:58;19.80;46.00
3055;DHT22;1537;52.018;8.542;2023-05-13T18:43:23;19.70;46.40
3055;DHT22;1537;52.018;8.542;2023-05-13T18:46:49;19.70;46.00
3055;DHT22;1537;52.018;8.542;2023-05-13T18:50:12;19.60;45.90
3055;DHT22;1537;52.018;8.542;2023-05-13T18:53:36;19.50;46.20
3055;DHT22;1537;52.018;8.542;2023-05-13T18:57:00;19.40;47.20
3055;DHT22;1537;52.018;8.542;2023-05-13T19:00:23;19.30;47.20
3055;DHT22;1537;52.018;8.542;2023-05-13T19:03:49;19.30;47.30
3055;DHT22;1537;52.018;8.542;2023-05-13T19:07:13;19.20;47.70
3055;DHT22;1537;52.018;8.542;2023-05-13T19:10:37;19.10;48.50
3055;DHT22;1537;52.018;8.542;2023-05-13T19:14:01;18.90;49.20
3055;DHT22;1537;52.018;8.542;2023-05-13T19:17:25;18.90;50.50
3055;DHT22;1537;52.018;8.542;2023-05-13T19:20:50;18.80;50.40
3055;DHT22;1537;52.018;8.542;2023-05-13T19:24:14;18.70;49.30
3055;DHT22;1537;52.018;8.542;2023-05-13T19:27:37;18.50;48.90
3055;DHT22;1537;52.018;8.542;2023-05-13T19:31:02;18.50;49.30
3055;DHT22;1537;52.018;8.542;2023-05-13T19:34:27;18.40;50.30
3055;DHT22;1537;52.018;8.542;2023-05-13T19:37:52;18.30;51.40
3055;DHT22;1537;52.018;8.542;2023-05-13T19:41:15;18.20;50.70
3055;DHT22;1537;52.018;8.542;2023-05-13T19:44:39;18.10;50.60
3055;DHT22;1537;52.018;8.542;2023-05-13T19:48:03;18.00;50.90
3055;DHT22;1537;52.018;8.542;2023-05-13T19:51:30;17.90;52.00
3055;DHT22;1537;52.018;8.542;2023-05-13T19:54:55;17.70;52.90
3055;DHT22;1537;52.018;8.542;2023-05-13T19:58:21;17.60;53.20
3055;DHT22;1537;52.018;8.542;2023-05-13T20:01:47;17.30;54.20
3055;DHT22;1537;52.018;8.542;2023-05-13T20:05:14;17.20;55.10
3055;DHT22;1537;52.018;8.542;2023-05-13T20:08:39;17.20;55.60
3055;DHT22;1537;52.018;8.542;2023-05-13T20:12:15;17.00;55.80
3055;DHT22;1537;52.018;8.542;2023-05-13T20:15:40;17.00;56.50
3055;DHT22;1537;52.018;8.542;2023-05-13T20:19:08;17.00;57.10
3055;DHT22;1537;52.018;8.542;2023-05-13T20:22:32;16.90;58.00
3055;DHT22;1537;52.018;8.542;2023-05-13T20:26:02;16.90;58.70
3055;DHT22;1537;52.018;8.542;2023-05-13T20:29:32;16.80;59.10
3055;DHT22;1537;52.018;8.542;2023-05-13T20:32:56;16.80;59.30
3055;DHT22;1537;52.018;8.542;2023-05-13T20:36:20;16.70;59.90
3055;DHT22;1537;52.018;8.542;2023-05-13T20:39:44;16.60;60.00
3055;DHT22;1537;52.018;8.542;2023-05-13T20:43:07;16.50;60.50
3055;DHT22;1537;52.018;8.542;2023-05-13T20:46:32;16.40;60.80
3055;DHT22;1537;52.018;8.542;2023-05-13T20:49:56;16.20;61.30
3055;DHT22;1537;52.018;8.542;2023-05-13T20:53:20;16.10;61.80
3055;DHT22;1537;52.018;8.542;2023-05-13T20:56:43;16.00;62.00
3055;DHT22;1537;52.018;8.542;2023-05-13T21:00:08;15.90;62.90
3055;DHT22;1537;52.018;8.542;2023-05-13T21:03:33;15.80;63.20
3055;DHT22;1537;52.018;8.542;2023-05-13T21:06:57;15.70;64.10
3055;DHT22;1537;52.018;8.542;2023-05-13T21:10:21;15.60;65.00
3055;DHT22;1537;52.018;8.542;2023-05-13T21:13:45;15.60;65.70
3055;DHT22;1537;52.018;8.542;2023-05-13T21:17:08;15.60;66.40
3055;DHT22;1537;52.018;8.542;2023-05-13T21:20:33;15.50;67.30
3055;DHT22;1537;52.018;8.542;2023-05-13T21:23:57;15.60;67.90
3055;DHT22;1537;52.018;8.542;2023-05-13T21:27:22;15.60;68.50
3055;DHT22;1537;52.018;8.542;2023-05-13T21:30:45;15.60;68.90
3055;DHT22;1537;52.018;8.542;2023-05-13T21:34:09;15.70;69.90
3055;DHT22;1537;52.018;8.542;2023-05-13T21:37:34;15.70;70.80
3055;DHT22;1537;52.018;8.542;2023-05-13T21:40:59;15.60;72.20
3055;DHT22;1537;52.018;8.542;2023-05-13T21:44:22;15.60;73.40
3055;DHT22;1537;52.018;8.542;2023-05-13T21:47:46;15.60;74.80
3055;DHT22;1537;52.018;8.542;2023-05-13T21:51:10;15.60;75.80
3055;DHT22;1537;52.018;8.542;2023-05-13T21:54:35;15.50;75.50
3055;DHT22;1537;52.018;8.542;2023-05-13T21:57:59;15.50;75.30
3055;DHT22;1537;52.018;8.542;2023-05-13T22:01:22;15.40;75.80
3055;DHT22;1537;52.018;8.542;2023-05-13T22:04:48;15.30;76.60
3055;DHT22;1537;52.018;8.542;2023-05-13T22:08:12;15.30;77.10
3055;DHT22;1537;52.018;8.542;2023-05-13T22:11:37;15.20;77.80
3055;DHT22;1537;52.018;8.542;2023-05-13T22:15:00;15.20;78.90
3055;DHT22;1537;52.018;8.542;2023-05-13T22:18:25;15.20;79.80
3055;DHT22;1537;52.018;8.542;2023-05-13T22:21:49;15.20;81.20